Silver Cliff, Wisconsin
Current Conditions -  °F | °C
As of 9:54 AM on Wednesday 26 Nov 2014 (Local Time) from KIMT Reporting Station
Overcast Overcast  
Wind Chill: 11°   Ceiling: 6000
Heat Index: 11°   Visibility: 10mi
Dew Point:   Wind: 0mph
Humidity: 84%   Direction: NA
Pressure: 30.14"   Gusts: NA
Location:  45.4596°N, 88.2404°W
Report Text: KIMT 261554Z AUTO 00000KT 10SM BKN060 OVC070 M12/M14 A3014 RMK AO2 SLP235 T11171139
Loading
Personal Weather Stations






























Interactive Weather Map New forecast layout! Learn more

10-Day Weather Forecast

Advertisements
Track Severe Weather on mobile